Latest Weather Observations for Broken Hill Airport

IDN60801

Issued at 3:03 pm EST Sunday 25 September 2016 (issued every 30 minutes, with the page automatically refreshed every 10 minutes)

About weather observations | Map of weather stations | Latest weather observations for NSW | Other Formats
Station Details ID: 047048 Name: BROKEN HILL AIRPORT AWS Lat: -32.00 Lon: 141.47 Height: 281.3 m
Data from the previous 72 hours. | See also: Recent months at Broken Hill Airport
Date/Time
EST
Temp
°C
App
Temp
°C
Dew
Point
°C
Rel
Hum
%
Delta-T
°C
Wind Press
QNH
hPa
Press
MSL
hPa
Rain since
9am
mm
Dir  Spd
km/h
Gust
km/h
Spd
kts
Gust
kts
25/03:00pm 15.9 12.3 5.2 49 5.2 W 13 20 7 11 1013.9 1013.6 0.0
25/02:30pm 15.1 11.4 4.2 48 5.1 WSW 13 22 7 12 1014.4 1014.1 0.0
25/02:00pm 14.8 10.5 3.0 45 5.4 WSW 15 26 8 14 1014.7 1014.4 0.0
25/01:30pm 14.3 10.6 4.6 52 4.6 S 13 20 7 11 1014.9 1014.6 0.0
25/01:00pm 14.2 9.8 4.5 52 4.5 SSW 17 32 9 17 1015.5 1015.1 0.0
25/12:30pm 14.0 10.0 5.1 55 4.2 SW 15 22 8 12 1015.8 1015.4 0.0
25/12:00pm 13.5 8.4 4.1 53 4.3 SSW 20 32 11 17 1015.9 1015.5 0.0
25/11:30am 13.5 8.0 4.1 53 4.3 S 22 33 12 18 1016.1 1015.7 0.0
25/11:00am 13.0 8.0 4.7 57 3.9 SSW 20 32 11 17 1016.4 1016.0 0.0
25/10:30am 12.5 5.8 3.7 55 4.0 SSW 28 37 15 20 1016.7 1016.3 0.0
25/10:00am 12.4 5.7 3.9 56 3.9 SSW 28 33 15 18 1016.6 1016.2 0.0
25/09:30am 11.6 4.9 3.6 58 3.6 SSW 28 41 15 22 1016.6 1016.2 5.4
25/09:00am 11.3 4.5 5.0 65 2.9 SSW 30 37 16 20 1016.2 1015.8 5.4
25/08:30am 10.6 3.8 5.2 69 2.5 S 30 35 16 19 1015.7 1015.3 5.4
25/08:00am 9.7 3.9 6.2 79 1.6 S 26 35 14 19 1015.3 1015.0 5.4
25/07:30am 8.8 3.0 6.4 85 1.1 SSW 26 35 14 19 1014.8 1014.5 5.4
25/07:00am 8.2 3.2 6.5 89 0.8 S 22 32 12 17 1014.4 1014.1 5.4
25/06:30am 7.7 3.1 6.3 91 0.6 SSW 20 24 11 13 1014.1 1013.8 5.4
25/06:00am 7.9 3.3 6.7 92 0.6 SSW 20 26 11 14 1013.6 1013.2 5.4
25/05:30am 8.2 3.7 7.0 92 0.6 SSW 20 26 11 14 1013.1 1012.7 5.4
25/05:00am 8.5 3.7 7.3 92 0.6 SSW 22 26 12 14 1012.6 1012.2 5.4
25/04:30am 9.0 3.9 7.6 91 0.7 S 24 28 13 15 1012.0 1011.6 5.4
25/04:00am 9.6 4.2 7.9 89 0.8 SSW 26 33 14 18 1012.1 1011.7 5.4
25/03:30am 9.6 5.0 8.0 90 0.8 SSW 22 32 12 17 1011.9 1011.5 5.4
25/03:23am 9.6 5.0 8.2 91 0.7 SSW 22 32 12 17 1011.9 1011.5 5.4
25/03:00am 9.8 4.1 8.4 91 0.7 SSW 28 37 15 20 1011.6 1011.3 5.4
25/02:30am 10.1 4.9 8.7 91 0.7 SSW 26 32 14 17 1011.6 1011.3 5.4
25/02:27am 10.1 4.9 8.7 91 0.7 SSW 26 32 14 17 1011.6 1011.3 5.4
25/02:23am 10.1 4.9 8.7 91 0.7 SSW 26 32 14 17 1011.6 1011.3 5.4
25/02:11am 10.3 5.1 8.9 91 0.7 SSW 26 35 14 19 1011.8 1011.4 5.4
25/02:07am 10.3 5.1 8.9 91 0.7 SSW 26 39 14 21 1011.8 1011.4 5.4
25/02:00am 10.4 4.4 8.8 90 0.8 SSW 30 41 16 22 1011.3 1011.0 5.4
25/01:30am 11.0 5.2 9.6 91 0.7 SSW 30 41 16 22 1011.1 1010.8 5.4
25/01:00am 11.3 6.0 10.0 92 0.7 SSW 28 37 15 20 1011.1 1010.8 5.4
25/12:30am 11.3 7.2 10.2 93 0.6 SW 22 33 12 18 1010.8 1010.5 5.4
25/12:16am 11.3 7.8 10.2 93 0.6 SW 19 24 10 13 1010.8 1010.5 5.4
25/12:00am 11.2 7.0 9.8 91 0.7 SW 22 28 12 15 1010.6 1010.2 5.4
 
Date/Time
EST
Temp
°C
App
Temp
°C
Dew
Point
°C
Rel
Hum
%
Delta-T
°C
Wind Press
QNH
hPa
Press
MSL
hPa
Rain since
9am
mm
Dir  Spd
km/h
Gust
km/h
Spd
kts
Gust
kts
24/11:30pm 11.7 8.0 10.3 91 0.7 SW 20 26 11 14 1010.5 1010.1 5.4
24/11:00pm 11.8 6.5 9.7 87 1.1 W 28 37 15 20 1010.4 1010.0 3.8
24/10:30pm 13.1 8.5 11.2 88 1.0 WSW 26 46 14 25 1009.9 1009.5 1.0
24/10:28pm 13.1 9.3 11.0 87 1.1 WSW 22 46 12 25 1009.8 1009.4 1.0
24/10:00pm 13.4 11.3 11.1 86 1.2 NW 13 20 7 11 1008.8 1008.4 1.0
24/09:30pm 13.4 11.6 10.9 85 1.3 NNW 11 15 6 8 1008.6 1008.2 1.0
24/09:00pm 13.6 11.8 11.0 84 1.4 NNW 11 13 6 7 1008.3 1007.9 1.0
24/08:30pm 13.9 12.1 10.9 82 1.6 N 11 13 6 7 1007.8 1007.5 1.0
24/08:00pm 14.0 12.5 10.4 79 1.9 N 9 11 5 6 1007.7 1007.4 1.0
24/07:30pm 14.7 13.1 10.3 75 2.3 NNW 9 13 5 7 1007.5 1007.1 1.0
24/07:00pm 15.3 13.0 10.3 72 2.7 NNW 13 17 7 9 1007.2 1006.8 1.0
24/06:30pm 15.7 14.1 10.2 70 2.9 NNW 9 17 5 9 1007.0 1006.6 1.0
24/06:00pm 15.9 13.9 10.2 69 3.0 N 11 17 6 9 1006.7 1006.3 1.0
24/05:30pm 16.2 13.5 10.3 68 3.2 N 15 20 8 11 1006.6 1006.2 1.0
24/05:00pm 16.3 13.6 10.2 67 3.3 N 15 26 8 14 1006.3 1005.9 1.0
24/04:30pm 16.5 13.4 10.4 67 3.3 N 17 24 9 13 1006.3 1005.9 1.0
24/04:00pm 15.9 12.3 10.0 68 3.1 N 19 26 10 14 1006.4 1006.0 1.0
24/03:30pm 15.4 12.0 9.1 66 3.3 N 17 24 9 13 1006.6 1006.2 1.0
24/03:00pm 15.7 12.0 10.0 69 3.0 NNE 20 32 11 17 1006.3 1005.9 1.0
24/02:30pm 15.6 10.8 10.2 70 2.9 NNE 26 35 14 19 1006.2 1005.8 1.0
24/02:00pm 15.0 10.5 10.0 72 2.7 NNE 24 35 13 19 1006.6 1006.2 1.0
24/01:30pm 14.7 12.2 11.1 79 1.9 NNE 15 20 8 11 1007.0 1006.6 1.0
24/01:00pm 13.8 11.0 10.0 78 2.0 NNW 15 20 8 11 1008.2 1007.8 0.8
24/12:30pm 15.8 10.8 8.1 60 3.9 NNW 24 35 13 19 1009.2 1008.8 0.2
24/12:00pm 15.0 13.4 10.2 73 2.6 NW 9 13 5 7 1009.5 1009.1 0.2
24/11:30am 14.8 12.6 9.4 70 2.8 NW 11 15 6 8 1009.7 1009.3 0.2
24/11:00am 14.5 11.9 9.5 72 2.6 NNW 13 19 7 10 1009.8 1009.4 0.2
24/10:30am 13.8 9.9 8.6 71 2.7 NNW 19 30 10 16 1009.7 1009.3 0.0
24/10:00am 16.1 12.6 5.4 49 5.2 N 13 24 7 13 1010.1 1009.7 0.0
24/09:30am 15.7 11.0 5.9 52 4.8 NNE 20 30 11 16 1009.5 1009.1 0.0
24/09:00am 16.4 11.8 5.7 49 5.2 NNE 19 30 10 16 1009.9 1009.5 0.0
24/08:30am 14.9 10.5 6.7 58 4.1 NNE 19 26 10 14 1010.1 1009.7 0.0
24/08:00am 13.1 8.8 6.9 66 3.0 NNE 19 22 10 12 1009.5 1009.1 0.0
24/07:30am 11.5 7.5 6.8 73 2.3 NNE 17 20 9 11 1009.2 1008.8 0.0
24/07:00am 9.0 5.2 5.9 81 1.4 NE 15 17 8 9 1009.0 1008.6 0.0
24/06:30am 9.0 5.5 5.4 78 1.7 NNE 13 15 7 8 1009.3 1008.9 0.0
24/06:00am 9.0 5.5 5.4 78 1.7 NNE 13 19 7 10 1009.2 1008.8 0.0
24/05:30am 8.8 4.9 5.5 80 1.5 NNE 15 17 8 9 1008.7 1008.3 0.0
24/05:00am 8.4 5.0 6.0 85 1.1 NNE 13 17 7 9 1008.2 1007.8 0.0
24/04:30am 6.9 3.3 5.1 88 0.8 NE 13 15 7 8 1007.9 1007.6 0.0
24/04:00am 7.7 4.3 5.7 87 0.9 NE 13 15 7 8 1008.2 1007.8 0.0
24/03:30am 8.3 4.9 6.1 86 1.0 NE 13 15 7 8 1008.6 1008.2 0.0
24/03:00am 7.8 4.3 5.6 86 1.0 NE 13 15 7 8 1008.8 1008.4 0.0
24/02:30am 8.1 4.6 5.6 84 1.1 NE 13 15 7 8 1009.4 1009.0 0.0
24/02:00am 8.2 5.2 5.8 85 1.1 NE 11 15 6 8 1009.7 1009.3 0.0
24/01:30am 8.5 5.8 5.8 83 1.2 NE 9 11 5 6 1009.9 1009.5 0.0
24/01:00am 9.0 5.2 5.9 81 1.4 NE 15 17 8 9 1009.9 1009.5 0.0
24/12:30am 9.3 5.2 6.2 81 1.5 NNE 17 19 9 10 1010.2 1009.8 0.0
24/12:00am 9.2 5.4 5.6 78 1.7 NNE 15 15 8 8 1010.8 1010.5 0.0
 
Date/Time
EST
Temp
°C
App
Temp
°C
Dew
Point
°C
Rel
Hum
%
Delta-T
°C
Wind Press
QNH
hPa
Press
MSL
hPa
Rain since
9am
mm
Dir  Spd
km/h
Gust
km/h
Spd
kts
Gust
kts
23/11:30pm 10.8 7.5 6.4 74 2.1 NNE 13 17 7 9 1011.1 1010.8 0.0
23/11:00pm 9.9 6.5 6.1 77 1.8 NE 13 15 7 8 1011.2 1010.9 0.0
23/10:30pm 9.7 6.3 5.7 76 1.9 NE 13 15 7 8 1011.2 1010.9 0.0
23/10:00pm 10.3 7.1 5.1 70 2.4 NNE 11 15 6 8 1011.2 1010.9 0.0
23/09:30pm 12.5 9.8 5.4 62 3.4 NNE 9 11 5 6 1011.1 1010.8 0.0
23/09:00pm 10.8 7.8 5.8 71 2.4 NE 11 13 6 7 1011.1 1010.8 0.0
23/08:30pm 13.9 11.1 5.0 55 4.2 N 9 11 5 6 1010.9 1010.6 0.0
23/08:00pm 14.2 11.3 4.8 53 4.4 N 9 13 5 7 1010.8 1010.5 0.0
23/07:30pm 14.3 11.4 4.6 52 4.6 N 9 11 5 6 1010.8 1010.5 0.0
23/07:00pm 14.8 11.8 3.9 48 5.1 NNW 9 13 5 7 1010.7 1010.3 0.0
23/06:30pm 15.7 12.2 3.5 44 5.7 NNW 11 17 6 9 1010.9 1010.6 0.0
23/06:00pm 16.9 12.6 3.2 40 6.4 N 15 20 8 11 1010.9 1010.6 0.0
23/05:30pm 17.4 12.8 3.7 40 6.5 NNW 17 24 9 13 1010.9 1010.6 0.0
23/05:00pm 17.8 13.5 3.3 38 6.8 N 15 26 8 14 1010.9 1010.6 0.0
23/04:30pm 17.7 12.9 2.5 36 7.0 N 17 24 9 13 1011.0 1010.7 0.0
23/04:00pm 17.8 13.4 2.9 37 7.0 NNW 15 24 8 13 1011.1 1010.8 0.0
23/03:30pm 18.4 14.8 4.9 41 6.6 NNW 13 20 7 11 1011.2 1010.9 0.0
23/03:00pm 17.8 13.3 4.4 41 6.5 NNW 17 26 9 14 1011.6 1011.3 0.0
23/02:30pm 17.4 12.9 4.0 41 6.4 NNE 17 26 9 14 1012.0 1011.6 0.0
23/02:00pm 16.8 13.0 5.7 48 5.4 N 15 22 8 12 1012.4 1012.0 0.0
23/01:30pm 16.9 12.6 5.2 46 5.7 NNE 17 20 9 11 1013.0 1012.6 0.0
23/01:00pm 16.3 13.0 4.4 45 5.7 NNE 11 19 6 10 1013.6 1013.2 0.0
23/12:30pm 15.5 12.4 3.6 45 5.5 N 9 20 5 11 1014.3 1014.0 0.0
23/12:00pm 15.0 12.2 5.0 51 4.8 NNW 9 20 5 11 1015.1 1014.8 0.0
23/11:30am 15.3 12.7 6.3 55 4.4 NW 9 15 5 8 1015.5 1015.1 0.0
23/11:00am 14.1 12.2 4.9 54 4.3 NNE 4 13 2 7 1015.9 1015.5 0.0
23/10:30am 13.9 11.4 4.5 53 4.4 WNW 7 15 4 8 1016.3 1015.9 0.0
23/10:00am 13.1 9.6 3.5 52 4.4 N 11 15 6 8 1016.6 1016.2 0.0
23/09:30am 12.7 9.6 5.4 61 3.4 NNE 11 20 6 11 1017.0 1016.7 0.2
23/09:00am 12.0 8.7 4.5 60 3.5 NNE 11 19 6 10 1017.2 1016.9 0.2
23/08:30am 11.2 9.2 4.4 63 3.1 NE 4 11 2 6 1017.4 1017.1 0.2
23/08:00am 10.3 9.2 5.3 71 2.3 CALM 0 0 0 0 1017.4 1017.1 0.2
23/07:30am 7.8 7.0 6.4 91 0.7 CALM 0 0 0 0 1017.3 1017.0 0.2
23/07:00am 4.5 3.0 3.0 90 0.6 CALM 0 0 0 0 1017.3 1017.0 0.2
23/06:30am 4.0 2.4 2.4 89 0.7 CALM 0 0 0 0 1017.1 1016.8 0.2
23/06:00am 4.3 2.3 2.3 87 0.8 N 2 6 1 3 1016.8 1016.4 0.2
23/05:30am 3.0 1.2 0.9 86 0.8 CALM 0 0 0 0 1016.7 1016.3 0.2
23/05:00am 5.2 3.6 2.7 84 1.0 CALM 0 0 0 0 1016.6 1016.2 0.2
23/04:30am 4.5 2.9 2.7 88 0.7 CALM 0 0 0 0 1016.4 1016.0 0.2
23/04:00am 4.2 2.4 1.1 80 1.2 CALM 0 0 0 0 1016.3 1015.9 0.2
23/03:30am 6.9 5.5 3.5 79 1.5 CALM 0 0 0 0 1016.5 1016.1 0.2
23/03:00am 6.7 5.3 3.7 81 1.3 CALM 0 0 0 0 1016.7 1016.3 0.2
23/02:30am 6.2 4.7 3.0 80 1.4 CALM 0 0 0 0 1017.1 1016.8 0.2
23/02:00am 5.9 4.4 2.9 81 1.3 CALM 0 0 0 0 1017.1 1016.8 0.2
23/01:30am 7.0 4.2 3.4 78 1.5 ENE 7 9 4 5 1017.4 1017.1 0.2
23/01:00am 7.2 5.8 3.4 77 1.6 CALM 0 0 0 0 1017.9 1017.6 0.2
23/12:30am 7.0 5.7 4.0 81 1.3 CALM 0 0 0 0 1018.1 1017.8 0.2
23/12:00am 7.6 6.3 4.0 78 1.6 CALM 0 0 0 0 1018.5 1018.2 0.2
 
Date/Time
EST
Temp
°C
App
Temp
°C
Dew
Point
°C
Rel
Hum
%
Delta-T
°C
Wind Press
QNH
hPa
Press
MSL
hPa
Rain since
9am
mm
Dir  Spd
km/h
Gust
km/h
Spd
kts
Gust
kts
22/11:30pm 7.0 5.6 3.4 78 1.5 CALM 0 0 0 0 1018.6 1018.3 0.2
22/11:00pm 7.9 6.3 4.3 78 1.6 SE 2 9 1 5 1018.8 1018.5 0.2
22/10:30pm 7.2 4.6 4.2 81 1.3 SE 7 9 4 5 1018.7 1018.4 0.2
22/10:00pm 7.7 4.4 4.3 79 1.5 SE 11 13 6 7 1018.5 1018.2 0.2
22/09:30pm 8.0 6.7 4.2 77 1.7 CALM 0 0 0 0 1018.6 1018.3 0.2
22/09:00pm 8.5 7.2 4.3 75 1.9 CALM 0 0 0 0 1018.6 1018.3 0.2
22/08:30pm 9.8 8.7 5.0 72 2.2 CALM 0 0 0 0 1018.7 1018.4 0.2
22/08:00pm 9.9 8.5 5.3 73 2.1 SSE 2 7 1 4 1018.7 1018.4 0.2
22/07:30pm 9.4 7.5 5.0 74 2.0 S 4 7 2 4 1018.4 1018.1 0.2
22/07:00pm 10.0 7.5 5.0 71 2.3 SSW 7 9 4 5 1018.4 1018.1 0.2
22/06:30pm 11.4 7.7 4.2 61 3.3 SSW 13 17 7 9 1018.4 1018.1 0.2
22/06:00pm 12.8 8.0 4.8 58 3.7 SSW 19 24 10 13 1018.2 1017.9 0.2
22/05:30pm 13.5 8.7 4.4 54 4.2 SW 19 24 10 13 1018.1 1017.8 0.2
22/05:00pm 14.0 9.5 4.3 52 4.5 SW 17 26 9 14 1017.9 1017.6 0.2
22/04:30pm 14.1 9.6 4.4 52 4.5 SSW 17 26 9 14 1018.0 1017.7 0.2
22/04:00pm 13.8 9.3 4.1 52 4.5 SW 17 26 9 14 1018.0 1017.7 0.2

Other Formats:

Comma delimited format used in spreadsheet applications
http://www.bom.gov.au/fwo/IDN60801/IDN60801.94691.axf

JavaScript Object Notation format (JSON) in row-major order
http://www.bom.gov.au/fwo/IDN60801/IDN60801.94691.json